createdAt,value
2019-01-17T00:02:02.803Z,99920.75
2019-01-17T00:04:47.502Z,99919.19
2019-01-17T00:07:21.482Z,99922.30
2019-01-17T00:09:49.251Z,99917.83
2019-01-17T00:12:17.030Z,99915.65
2019-01-17T00:14:47.358Z,99908.86
2019-01-17T00:17:32.000Z,99901.47
2019-01-17T00:20:12.139Z,99894.11
2019-01-17T00:22:45.655Z,99893.58
2019-01-17T00:25:30.143Z,99883.97
2019-01-17T00:27:57.973Z,99883.88
2019-01-17T00:30:42.216Z,99882.59
2019-01-17T00:33:10.023Z,99872.41
2019-01-17T00:35:40.746Z,99876.48
2019-01-17T00:38:17.806Z,99870.88
2019-01-17T00:40:57.539Z,99871.17
2019-01-17T00:43:40.397Z,99875.14
2019-01-17T00:46:08.182Z,99875.88
2019-01-17T00:48:38.799Z,99874.59
2019-01-17T00:51:23.117Z,99878.52
2019-01-17T00:53:50.894Z,99873.28
2019-01-17T00:56:19.384Z,99873.78
2019-01-17T00:58:56.966Z,99877.81
2019-01-17T01:01:39.645Z,99884.06
2019-01-17T01:04:10.198Z,99877.20
2019-01-17T01:06:37.979Z,99872.34
2019-01-17T01:09:24.116Z,99872.52
2019-01-17T01:11:54.652Z,99875.27
2019-01-17T01:14:22.403Z,99872.16
2019-01-17T01:16:59.199Z,99868.47
2019-01-17T01:19:26.994Z,99870.48
2019-01-17T01:22:11.266Z,99868.23
2019-01-17T01:24:41.802Z,99866.59
2019-01-17T01:27:12.728Z,99871.80
2019-01-17T01:29:49.494Z,99871.18
2019-01-17T01:32:23.076Z,99867.09
2019-01-17T01:34:53.839Z,99864.16
2019-01-17T01:37:33.767Z,99864.19
2019-01-17T01:40:04.303Z,99860.23
2019-01-17T01:42:50.791Z,99857.82
2019-01-17T01:45:30.775Z,99856.00
2019-01-17T01:47:58.568Z,99858.31
2019-01-17T01:50:38.468Z,99856.20
2019-01-17T01:53:07.310Z,99854.82
2019-01-17T01:55:33.179Z,99854.09
2019-01-17T01:57:59.569Z,99846.67
2019-01-17T02:00:25.787Z,99850.17
2019-01-17T02:02:51.649Z,99840.01
2019-01-17T02:05:17.508Z,99831.33
2019-01-17T02:07:43.409Z,99834.56
2019-01-17T02:10:09.784Z,99834.89
2019-01-17T02:12:35.657Z,99835.09
2019-01-17T02:15:01.637Z,99830.84
2019-01-17T02:17:27.760Z,99831.30
2019-01-17T02:19:54.327Z,99827.77
2019-01-17T02:22:20.254Z,99827.97
2019-01-17T02:24:46.175Z,99824.91
2019-01-17T02:27:12.043Z,99816.92
2019-01-17T02:29:37.936Z,99822.46
2019-01-17T02:32:03.819Z,99821.20
2019-01-17T02:34:29.808Z,99824.61
2019-01-17T02:36:55.788Z,99819.66
2019-01-17T02:39:21.661Z,99822.39
2019-01-17T02:41:47.531Z,99820.48
2019-01-17T02:44:13.423Z,99818.24
2019-01-17T02:46:39.325Z,99813.00
2019-01-17T02:49:05.194Z,99812.01
2019-01-17T02:51:31.100Z,99808.84
2019-01-17T02:53:56.963Z,99804.89
2019-01-17T02:56:22.837Z,99805.11
2019-01-17T02:58:48.857Z,99808.70
2019-01-17T03:01:15.440Z,99803.87
2019-01-17T03:03:41.300Z,99811.32
2019-01-17T03:06:07.227Z,99806.54
2019-01-17T03:08:33.119Z,99803.13
2019-01-17T03:10:58.966Z,99797.79
2019-01-17T03:13:24.835Z,99797.59
2019-01-17T03:15:50.776Z,99791.55
2019-01-17T03:18:16.651Z,99790.63
2019-01-17T03:20:42.525Z,99789.30
2019-01-17T03:23:08.418Z,99786.63
2019-01-17T03:25:34.301Z,99777.76
2019-01-17T03:28:00.225Z,99779.45
2019-01-17T03:30:26.472Z,99777.56
2019-01-17T03:32:52.380Z,99784.23
2019-01-17T03:35:18.243Z,99787.51
2019-01-17T03:37:44.117Z,99781.17
2019-01-17T03:40:12.451Z,99779.15
2019-01-17T03:42:38.427Z,99774.83
2019-01-17T03:45:07.098Z,99773.99
2019-01-17T03:47:33.000Z,99775.13
2019-01-17T03:49:58.848Z,99774.20
2019-01-17T03:52:24.757Z,99764.94
2019-01-17T03:54:53.901Z,99757.05
2019-01-17T03:57:18.403Z,99751.30
2019-01-17T03:59:44.407Z,99750.57
2019-01-17T04:02:10.718Z,99749.31
2019-01-17T04:04:36.581Z,99738.59
2019-01-17T04:07:02.459Z,99732.57
2019-01-17T04:09:28.343Z,99734.51
2019-01-17T04:11:54.187Z,99732.98
2019-01-17T04:14:20.090Z,99732.18
2019-01-17T04:16:45.981Z,99735.19
2019-01-17T04:19:11.970Z,99734.00
2019-01-17T04:21:37.846Z,99725.16
2019-01-17T04:24:03.837Z,99723.76
2019-01-17T04:26:29.691Z,99721.38
2019-01-17T04:28:55.680Z,99725.11
2019-01-17T04:31:21.580Z,99724.27
2019-01-17T04:33:47.537Z,99726.37
2019-01-17T04:36:13.451Z,99714.20
2019-01-17T04:38:39.345Z,99717.38
2019-01-17T04:41:05.280Z,99710.68
2019-01-17T04:43:31.143Z,99710.25
2019-01-17T04:45:57.041Z,99703.75
2019-01-17T04:48:22.989Z,99704.59
2019-01-17T04:50:48.855Z,99708.05
2019-01-17T04:53:14.719Z,99708.92
2019-01-17T04:55:40.705Z,99710.72
2019-01-17T04:58:06.586Z,99707.04
2019-01-17T05:00:32.569Z,99709.21
2019-01-17T05:02:59.002Z,99708.33
2019-01-17T05:05:24.878Z,99716.28
2019-01-17T05:07:50.790Z,99710.47
2019-01-17T05:10:16.714Z,99711.93
2019-01-17T05:12:42.589Z,99710.98
2019-01-17T05:15:09.377Z,99707.26
2019-01-17T05:17:35.253Z,99710.13
2019-01-17T05:20:01.256Z,99709.62
2019-01-17T05:22:27.115Z,99710.94
2019-01-17T05:24:52.997Z,99707.61
2019-01-17T05:27:18.934Z,99710.64
2019-01-17T05:29:44.819Z,99706.90
2019-01-17T05:32:10.726Z,99711.06
2019-01-17T05:34:39.557Z,99704.71
2019-01-17T05:37:04.411Z,99709.11
2019-01-17T05:39:30.291Z,99722.60
2019-01-17T05:41:56.180Z,99722.60
2019-01-17T05:44:22.082Z,99724.36
2019-01-17T05:46:47.919Z,99721.00
2019-01-17T05:49:13.816Z,99722.98
2019-01-17T05:51:39.689Z,99727.36
2019-01-17T05:54:05.888Z,99721.86
2019-01-17T05:56:31.754Z,99722.02
2019-01-17T05:58:57.649Z,99722.27
2019-01-17T06:01:24.160Z,99719.87
2019-01-17T06:03:50.844Z,99718.44
2019-01-17T06:06:16.819Z,99721.89
2019-01-17T06:08:42.705Z,99724.19
2019-01-17T06:11:08.672Z,99719.56
2019-01-17T06:13:34.651Z,99724.67
2019-01-17T06:16:00.959Z,99722.11
2019-01-17T06:18:26.875Z,99716.64
2019-01-17T06:20:52.731Z,99718.60
2019-01-17T06:23:18.706Z,99716.93
2019-01-17T06:25:44.601Z,99706.38
2019-01-17T06:28:10.514Z,99710.17
2019-01-17T06:30:36.497Z,99700.36
2019-01-17T06:33:02.387Z,99693.73
2019-01-17T06:35:28.270Z,99696.45
2019-01-17T06:37:54.141Z,99694.13
2019-01-17T06:40:26.162Z,99690.66
2019-01-17T06:42:52.063Z,99686.52
2019-01-17T06:45:17.965Z,99684.47
2019-01-17T06:47:43.935Z,99692.19
2019-01-17T06:50:09.801Z,99691.75
2019-01-17T06:52:35.689Z,99687.91
2019-01-17T06:55:01.558Z,99687.23
2019-01-17T06:57:27.532Z,99687.11
2019-01-17T06:59:53.408Z,99687.30
2019-01-17T07:02:19.650Z,99689.34
2019-01-17T07:04:46.289Z,99681.75
2019-01-17T07:07:12.217Z,99685.83
2019-01-17T07:09:38.094Z,99687.20
2019-01-17T07:12:03.969Z,99683.45
2019-01-17T07:14:29.830Z,99686.06
2019-01-17T07:16:55.697Z,99687.98
2019-01-17T07:19:21.711Z,99698.38
2019-01-17T07:21:47.591Z,99691.84
2019-01-17T07:24:13.462Z,99686.82
2019-01-17T07:26:39.358Z,99674.60
2019-01-17T07:29:05.258Z,99665.14
2019-01-17T07:31:31.140Z,99668.95
2019-01-17T07:33:57.035Z,99680.57
2019-01-17T07:36:22.885Z,99684.56
2019-01-17T07:38:48.770Z,99685.47
2019-01-17T07:41:14.660Z,99680.38
2019-01-17T07:43:40.599Z,99682.05
2019-01-17T07:46:06.451Z,99677.40
2019-01-17T07:48:32.321Z,99681.58
2019-01-17T07:50:58.220Z,99685.16
2019-01-17T07:53:24.321Z,99682.70
2019-01-17T07:55:50.199Z,99685.61
2019-01-17T07:58:16.181Z,99686.47
2019-01-17T08:00:42.068Z,99680.14
2019-01-17T08:03:08.742Z,99691.05
2019-01-17T08:05:35.403Z,99695.45
2019-01-17T08:08:01.282Z,99707.02
2019-01-17T08:10:27.157Z,99712.42
2019-01-17T08:12:53.063Z,99718.47
2019-01-17T08:15:18.911Z,99716.84
2019-01-17T08:17:44.836Z,99718.88
2019-01-17T08:20:19.052Z,99721.23
2019-01-17T08:22:44.902Z,99720.47
2019-01-17T08:25:10.979Z,99725.28
2019-01-17T08:27:36.950Z,99717.30
2019-01-17T08:30:06.682Z,99707.48
2019-01-17T08:32:32.580Z,99710.84
2019-01-17T08:34:58.458Z,99709.67
2019-01-17T08:37:24.439Z,99715.41
2019-01-17T08:39:50.356Z,99710.97
2019-01-17T08:42:16.226Z,99710.08
2019-01-17T08:44:42.155Z,99713.69
2019-01-17T08:47:08.021Z,99714.27
2019-01-17T08:49:33.986Z,99718.31
2019-01-17T08:51:59.867Z,99723.47
2019-01-17T08:54:25.876Z,99728.34
2019-01-17T08:56:51.774Z,99729.28
2019-01-17T08:59:17.647Z,99734.09
2019-01-17T09:01:43.648Z,99731.38
2019-01-17T09:04:09.645Z,99734.63
2019-01-17T09:06:35.889Z,99735.75
2019-01-17T09:09:01.977Z,99735.34
2019-01-17T09:11:27.963Z,99737.90
2019-01-17T09:13:53.816Z,99739.02
2019-01-17T09:16:19.704Z,99743.87
2019-01-17T09:18:45.567Z,99746.59
2019-01-17T09:21:11.451Z,99751.35
2019-01-17T09:23:37.327Z,99748.75
2019-01-17T09:26:07.491Z,99750.80
2019-01-17T09:28:30.974Z,99760.35
2019-01-17T09:30:56.833Z,99767.12
2019-01-17T09:33:22.692Z,99772.56
2019-01-17T09:35:48.659Z,99768.61
2019-01-17T09:38:14.535Z,99770.28
2019-01-17T09:40:40.421Z,99771.66
2019-01-17T09:43:06.642Z,99772.69
2019-01-17T09:45:32.536Z,99775.92
2019-01-17T09:47:58.517Z,99771.07
2019-01-17T09:50:24.395Z,99773.03
2019-01-17T09:52:50.381Z,99762.91
2019-01-17T09:55:16.374Z,99758.68
2019-01-17T09:57:42.207Z,99763.23
2019-01-17T10:00:17.864Z,99764.59
2019-01-17T10:02:43.768Z,99766.88
2019-01-17T10:05:09.771Z,99764.75
2019-01-17T10:07:36.010Z,99762.03
2019-01-17T10:10:08.135Z,99750.36
2019-01-17T10:12:34.045Z,99747.67
2019-01-17T10:14:59.897Z,99743.16
2019-01-17T10:17:29.576Z,99738.32
2019-01-17T10:19:59.411Z,99727.98
2019-01-17T10:22:35.001Z,99719.64
2019-01-17T10:25:16.725Z,99714.52
2019-01-17T10:27:58.239Z,99705.86
2019-01-17T10:30:43.001Z,99700.78
2019-01-17T10:33:21.379Z,99698.48
2019-01-17T10:35:56.837Z,99695.94
2019-01-17T10:38:38.521Z,99695.51
2019-01-17T10:41:30.851Z,99683.95
2019-01-17T10:44:09.484Z,99681.55
2019-01-17T10:46:48.038Z,99676.43
2019-01-17T10:49:23.508Z,99675.77
2019-01-17T10:51:56.254Z,99674.84
2019-01-17T10:54:44.307Z,99669.78
2019-01-17T10:57:16.930Z,99675.20
2019-01-17T10:59:52.540Z,99665.21
2019-01-17T11:02:37.584Z,99667.06
2019-01-17T11:05:22.651Z,99659.34
2019-01-17T11:08:11.638Z,99647.02
2019-01-17T11:10:56.407Z,99631.27
2019-01-17T11:13:38.135Z,99635.78
2019-01-17T11:16:24.397Z,99627.39
2019-01-17T11:19:12.336Z,99625.25
2019-01-17T11:21:54.026Z,99621.73
2019-01-17T11:24:44.413Z,99612.73
2019-01-17T11:27:25.922Z,99612.57
2019-01-17T11:30:01.939Z,99608.31
2019-01-17T11:32:49.437Z,99606.52
2019-01-17T11:35:25.172Z,99607.33
2019-01-17T11:37:57.888Z,99596.87
2019-01-17T11:40:50.823Z,99596.75
2019-01-17T11:43:29.622Z,99588.17
2019-01-17T11:46:11.261Z,99580.39
2019-01-17T11:49:03.983Z,99572.08
2019-01-17T11:51:33.667Z,99572.81
2019-01-17T11:54:12.168Z,99573.70
2019-01-17T11:56:47.802Z,99572.26
2019-01-17T11:59:23.216Z,99573.67
2019-01-17T12:02:06.267Z,99584.78
2019-01-17T12:04:33.914Z,99590.24
2019-01-17T12:07:01.968Z,99585.55
2019-01-17T12:09:28.477Z,99593.02
2019-01-17T12:11:54.440Z,99586.10
2019-01-17T12:14:20.325Z,99594.57
2019-01-17T12:16:46.226Z,99594.83
2019-01-17T12:19:12.075Z,99598.61
2019-01-17T12:21:37.954Z,99587.24
2019-01-17T12:24:03.963Z,99575.17
2019-01-17T12:26:29.853Z,99571.05
2019-01-17T12:28:55.763Z,99562.99
2019-01-17T12:31:21.692Z,99558.11
2019-01-17T12:33:47.516Z,99559.87
2019-01-17T12:36:13.415Z,99560.98
2019-01-17T12:38:39.257Z,99557.92
2019-01-17T12:41:05.230Z,99554.34
2019-01-17T12:43:31.132Z,99555.87
2019-01-17T12:45:57.156Z,99546.42
2019-01-17T12:48:23.055Z,99548.59
2019-01-17T12:50:48.896Z,99541.48
2019-01-17T12:53:14.811Z,99539.52
2019-01-17T12:55:40.707Z,99532.74
2019-01-17T12:58:06.578Z,99537.41
2019-01-17T13:00:32.790Z,99536.02
2019-01-17T13:02:58.667Z,99536.58
2019-01-17T13:05:24.539Z,99524.49
2019-01-17T13:07:50.809Z,99513.27
2019-01-17T13:10:17.629Z,99512.42
2019-01-17T13:12:43.501Z,99507.41
2019-01-17T13:15:11.087Z,99497.34
2019-01-17T13:17:36.959Z,99491.06
2019-01-17T13:20:06.124Z,99481.88
2019-01-17T13:22:32.117Z,99474.33
2019-01-17T13:24:58.046Z,99467.28
2019-01-17T13:27:23.987Z,99478.30
2019-01-17T13:29:49.869Z,99475.73
2019-01-17T13:32:15.838Z,99471.74
2019-01-17T13:34:41.706Z,99462.08
2019-01-17T13:37:07.582Z,99462.83
2019-01-17T13:39:33.450Z,99459.20
2019-01-17T13:41:59.331Z,99452.13
2019-01-17T13:44:25.240Z,99458.48
2019-01-17T13:46:51.100Z,99457.50
2019-01-17T13:49:17.091Z,99457.31
2019-01-17T13:51:42.929Z,99460.84
2019-01-17T13:54:08.897Z,99456.55
2019-01-17T13:56:34.758Z,99454.77
2019-01-17T13:59:00.747Z,99462.53
2019-01-17T14:01:26.660Z,99468.29
2019-01-17T14:03:52.524Z,99461.95
2019-01-17T14:06:18.416Z,99463.86
2019-01-17T14:08:44.719Z,99466.39
2019-01-17T14:11:11.268Z,99464.96
2019-01-17T14:13:37.225Z,99454.13
2019-01-17T14:16:03.291Z,99457.96
2019-01-17T14:18:29.153Z,99452.98
2019-01-17T14:20:55.040Z,99449.70
2019-01-17T14:23:21.035Z,99450.32
2019-01-17T14:25:46.893Z,99438.57
2019-01-17T14:28:12.779Z,99429.92
2019-01-17T14:30:38.723Z,99430.81
2019-01-17T14:33:04.738Z,99435.21
2019-01-17T14:35:30.637Z,99436.16
2019-01-17T14:37:56.817Z,99440.16
2019-01-17T14:40:22.718Z,99437.13
2019-01-17T14:42:48.546Z,99443.92
2019-01-17T14:45:19.394Z,99434.63
2019-01-17T14:47:45.271Z,99428.42
2019-01-17T14:50:14.030Z,99431.61
2019-01-17T14:52:39.929Z,99427.78
2019-01-17T14:55:06.415Z,99427.56
2019-01-17T14:57:32.299Z,99434.75
2019-01-17T14:59:58.166Z,99431.02
2019-01-17T15:02:24.052Z,99425.92
2019-01-17T15:04:49.943Z,99419.34
2019-01-17T15:07:15.817Z,99424.81
2019-01-17T15:09:41.815Z,99417.05
2019-01-17T15:12:07.992Z,99415.00
2019-01-17T15:14:33.899Z,99415.13
2019-01-17T15:16:59.819Z,99414.58
2019-01-17T15:19:25.795Z,99419.50
2019-01-17T15:21:51.755Z,99421.59
2019-01-17T15:24:17.576Z,99423.89
2019-01-17T15:26:43.461Z,99418.33
2019-01-17T15:29:09.433Z,99412.92
2019-01-17T15:31:35.319Z,99418.97
2019-01-17T15:34:01.214Z,99410.17
2019-01-17T15:36:27.194Z,99412.03
2019-01-17T15:38:53.061Z,99401.48
2019-01-17T15:41:18.929Z,99403.62
2019-01-17T15:43:44.822Z,99392.44
2019-01-17T15:46:10.704Z,99393.29
2019-01-17T15:48:36.559Z,99387.86
2019-01-17T15:51:02.413Z,99392.23
2019-01-17T15:53:28.299Z,99394.44
2019-01-17T15:55:54.178Z,99389.98
2019-01-17T15:58:20.065Z,99387.38
2019-01-17T16:00:45.937Z,99384.87
2019-01-17T16:03:11.815Z,99379.50
2019-01-17T16:05:37.742Z,99374.04
2019-01-17T16:08:03.633Z,99366.64
2019-01-17T16:10:29.949Z,99370.16
2019-01-17T16:12:56.075Z,99367.73
2019-01-17T16:15:23.646Z,99364.02
2019-01-17T16:17:49.537Z,99363.46
2019-01-17T16:20:15.911Z,99365.94
2019-01-17T16:22:41.849Z,99368.13
2019-01-17T16:25:10.053Z,99365.87
2019-01-17T16:27:41.854Z,99364.44
2019-01-17T16:30:10.659Z,99364.96
2019-01-17T16:32:36.687Z,99359.19
2019-01-17T16:35:02.643Z,99360.67
2019-01-17T16:37:28.500Z,99359.07
2019-01-17T16:39:54.510Z,99365.80
2019-01-17T16:42:20.380Z,99367.52
2019-01-17T16:44:46.295Z,99365.22
2019-01-17T16:47:12.153Z,99363.63
2019-01-17T16:49:38.050Z,99365.17
2019-01-17T16:52:04.046Z,99357.22
2019-01-17T16:54:29.897Z,99356.87
2019-01-17T16:56:55.796Z,99368.37
2019-01-17T16:59:21.699Z,99365.28
2019-01-17T17:01:47.589Z,99365.28
2019-01-17T17:04:13.436Z,99365.67
2019-01-17T17:06:39.303Z,99367.42
2019-01-17T17:09:06.271Z,99363.17
2019-01-17T17:11:32.592Z,99368.83
2019-01-17T17:13:59.537Z,99364.28
2019-01-17T17:16:25.378Z,99364.56
2019-01-17T17:18:51.275Z,99368.14
2019-01-17T17:21:17.188Z,99373.33
2019-01-17T17:23:43.049Z,99367.92
2019-01-17T17:26:08.926Z,99372.88
2019-01-17T17:28:34.794Z,99375.48
2019-01-17T17:31:00.682Z,99375.27
2019-01-17T17:33:26.562Z,99373.28
2019-01-17T17:35:52.454Z,99372.98
2019-01-17T17:38:18.318Z,99365.59
2019-01-17T17:40:44.238Z,99360.45
2019-01-17T17:43:10.176Z,99359.06
2019-01-17T17:45:36.060Z,99364.39
2019-01-17T17:48:01.957Z,99360.14
2019-01-17T17:50:27.824Z,99362.14
2019-01-17T17:52:53.684Z,99364.59
2019-01-17T17:55:19.584Z,99371.97
2019-01-17T17:57:45.472Z,99369.53
2019-01-17T18:00:19.034Z,99358.59
2019-01-17T18:02:45.317Z,99371.67
2019-01-17T18:05:11.219Z,99370.41
2019-01-17T18:07:37.118Z,99373.75
2019-01-17T18:10:06.791Z,99377.08
2019-01-17T18:12:33.146Z,99379.58
2019-01-17T18:15:00.613Z,99371.36
2019-01-17T18:17:26.509Z,99366.71
2019-01-17T18:19:52.382Z,99368.53
2019-01-17T18:22:18.277Z,99359.69
2019-01-17T18:24:44.193Z,99362.20
2019-01-17T18:27:10.060Z,99362.77
2019-01-17T18:29:35.956Z,99362.48
2019-01-17T18:32:02.411Z,99355.88
2019-01-17T18:34:28.380Z,99355.90
2019-01-17T18:36:54.335Z,99349.80
2019-01-17T18:39:20.247Z,99356.83
2019-01-17T18:41:46.170Z,99360.95
2019-01-17T18:44:12.055Z,99358.70
2019-01-17T18:46:38.085Z,99354.40
2019-01-17T18:49:03.907Z,99354.32
2019-01-17T18:51:29.889Z,99355.86
2019-01-17T18:53:55.796Z,99347.17
2019-01-17T18:56:21.656Z,99352.27
2019-01-17T18:58:47.696Z,99347.06
2019-01-17T19:01:13.565Z,99342.55
2019-01-17T19:03:39.531Z,99344.66
2019-01-17T19:06:05.716Z,99345.83
2019-01-17T19:08:31.602Z,99343.69
2019-01-17T19:10:57.731Z,99342.50
2019-01-17T19:13:23.671Z,99338.61
2019-01-17T19:15:49.982Z,99339.59
2019-01-17T19:18:15.886Z,99344.52
2019-01-17T19:20:41.780Z,99340.32
2019-01-17T19:23:07.662Z,99343.17
2019-01-17T19:25:33.526Z,99336.84
2019-01-17T19:28:00.212Z,99333.30
2019-01-17T19:30:27.580Z,99337.85
2019-01-17T19:32:53.459Z,99334.16
2019-01-17T19:35:19.333Z,99329.75
2019-01-17T19:37:45.345Z,99329.54
2019-01-17T19:40:15.544Z,99334.24
2019-01-17T19:42:41.660Z,99329.96
2019-01-17T19:45:09.658Z,99329.96
2019-01-17T19:47:35.605Z,99325.33
2019-01-17T19:50:01.696Z,99324.28
2019-01-17T19:52:27.618Z,99330.78
2019-01-17T19:54:53.460Z,99328.78
2019-01-17T19:57:19.347Z,99333.91
2019-01-17T19:59:45.236Z,99331.37
2019-01-17T20:02:11.110Z,99327.24
2019-01-17T20:04:41.738Z,99317.84
2019-01-17T20:07:04.757Z,99320.25
2019-01-17T20:09:30.777Z,99320.85
2019-01-17T20:11:56.639Z,99312.06
2019-01-17T20:14:22.652Z,99327.49
2019-01-17T20:16:48.832Z,99318.14
2019-01-17T20:19:14.727Z,99324.07
2019-01-17T20:21:40.608Z,99322.39
2019-01-17T20:24:06.471Z,99319.67
2019-01-17T20:26:32.336Z,99318.27
2019-01-17T20:28:58.246Z,99318.14
2019-01-17T20:31:24.154Z,99314.51
2019-01-17T20:33:50.466Z,99305.13
2019-01-17T20:36:16.472Z,99308.42
2019-01-17T20:38:42.288Z,99310.05
2019-01-17T20:41:08.432Z,99306.72
2019-01-17T20:43:34.325Z,99308.27
2019-01-17T20:46:00.206Z,99304.45
2019-01-17T20:48:26.331Z,99303.79
2019-01-17T20:50:52.229Z,99307.05
2019-01-17T20:53:18.105Z,99302.13
2019-01-17T20:55:43.981Z,99296.57
2019-01-17T20:58:09.887Z,99290.06
2019-01-17T21:00:43.062Z,99290.22
2019-01-17T21:03:10.517Z,99290.52
2019-01-17T21:05:36.518Z,99296.03
2019-01-17T21:08:02.396Z,99294.28
2019-01-17T21:10:28.291Z,99302.29
2019-01-17T21:12:54.306Z,99301.28
2019-01-17T21:15:21.100Z,99294.22
2019-01-17T21:17:47.603Z,99295.32
2019-01-17T21:20:13.603Z,99286.55
2019-01-17T21:22:39.461Z,99277.26
2019-01-17T21:25:09.082Z,99280.16
2019-01-17T21:27:35.055Z,99292.28
2019-01-17T21:30:00.962Z,99296.60
2019-01-17T21:32:27.092Z,99296.84
2019-01-17T21:34:53.016Z,99290.63
2019-01-17T21:37:19.004Z,99292.80
2019-01-17T21:39:44.967Z,99294.31
2019-01-17T21:42:10.861Z,99298.25
2019-01-17T21:44:37.801Z,99298.00
2019-01-17T21:47:03.690Z,99291.85
2019-01-17T21:49:29.586Z,99289.75
2019-01-17T21:51:55.434Z,99288.30
2019-01-17T21:54:21.324Z,99284.22
2019-01-17T21:56:47.177Z,99290.93
2019-01-17T21:59:13.048Z,99296.32
2019-01-17T22:01:38.922Z,99295.01
2019-01-17T22:04:04.833Z,99294.78
2019-01-17T22:06:30.814Z,99295.89
2019-01-17T22:08:56.770Z,99289.77
2019-01-17T22:11:22.638Z,99278.80
2019-01-17T22:13:48.537Z,99278.37
2019-01-17T22:16:14.862Z,99277.92
2019-01-17T22:18:41.617Z,99277.33
2019-01-17T22:21:07.487Z,99273.25
2019-01-17T22:23:33.482Z,99275.48
2019-01-17T22:25:59.307Z,99276.30
2019-01-17T22:28:25.207Z,99278.97
2019-01-17T22:30:51.078Z,99281.56
2019-01-17T22:33:17.049Z,99286.00
2019-01-17T22:35:42.929Z,99280.84
2019-01-17T22:38:09.189Z,99281.00
2019-01-17T22:40:36.150Z,99277.92
2019-01-17T22:43:01.999Z,99279.73
2019-01-17T22:45:29.442Z,99271.97
2019-01-17T22:47:55.468Z,99271.38
2019-01-17T22:50:21.343Z,99265.66
2019-01-17T22:52:48.718Z,99262.48
2019-01-17T22:55:14.574Z,99257.68
2019-01-17T22:57:40.561Z,99256.98
2019-01-17T23:00:50.514Z,99251.83
2019-01-17T23:03:18.186Z,99253.18
2019-01-17T23:05:44.363Z,99257.02
2019-01-17T23:08:10.245Z,99254.06
2019-01-17T23:10:36.214Z,99248.28
2019-01-17T23:13:02.124Z,99254.09
2019-01-17T23:15:28.121Z,99256.07
2019-01-17T23:17:54.595Z,99249.95
2019-01-17T23:20:21.142Z,99255.81
2019-01-17T23:22:47.048Z,99248.56
2019-01-17T23:25:12.903Z,99244.47
2019-01-17T23:27:38.774Z,99250.39
2019-01-17T23:30:08.485Z,99238.84
2019-01-17T23:32:34.379Z,99232.92
2019-01-17T23:35:00.318Z,99235.38
2019-01-17T23:37:26.155Z,99235.38
2019-01-17T23:39:52.025Z,99233.08
2019-01-17T23:42:17.904Z,99224.86
2019-01-17T23:44:43.768Z,99220.31
2019-01-17T23:47:09.681Z,99222.81
2019-01-17T23:49:35.655Z,99225.20
2019-01-17T23:52:01.559Z,99218.05
2019-01-17T23:54:27.475Z,99220.53
2019-01-17T23:56:53.422Z,99213.29
2019-01-17T23:59:22.767Z,99211.27
